Time;durP1;ratioP1;P1;durP2;ratioP2;P2;SDS_P1;SDS_P2;PMS_P1;PMS_P2;Temp;Humidity;BMP_temperature;BMP_pressure;BME280_temperature;BME280_humidity;BME280_pressure;Samples;Min_cycle;Max_cycle;Signal;HPM_P1;HPM_P2
2023/07/01 00:03:08;;;;;;;3.80;2.58;;;20.10;99.90;;;;;;10065377;28;20404;-60
2023/07/01 00:07:59;;;;;;;7.57;2.35;;;20.10;99.90;;;;;;10076693;28;20191;-60
2023/07/01 00:12:49;;;;;;;4.30;2.33;;;20.00;99.90;;;;;;10079048;28;20056;-59
2023/07/01 00:17:41;;;;;;;5.45;2.38;;;20.00;99.90;;;;;;10076261;28;20060;-60
2023/07/01 00:22:32;;;;;;;4.30;2.75;;;20.10;99.90;;;;;;10069609;28;20034;-60
2023/07/01 00:27:22;;;;;;;3.20;2.13;;;20.00;99.90;;;;;;10062284;28;20037;-60
2023/07/01 00:32:13;;;;;;;5.25;2.10;;;20.10;99.90;;;;;;10058589;28;20396;-60
2023/07/01 00:37:04;;;;;;;3.67;2.30;;;19.90;99.90;;;;;;10078127;28;20037;-60
2023/07/01 00:41:56;;;;;;;3.63;2.80;;;20.00;99.90;;;;;;10056391;28;20060;-63
2023/07/01 00:46:47;;;;;;;4.13;2.63;;;19.90;99.90;;;;;;10067519;28;20072;-60
2023/07/01 00:51:38;;;;;;;4.32;2.20;;;19.90;99.90;;;;;;10076668;28;20021;-60
2023/07/01 00:56:29;;;;;;;6.00;2.95;;;19.80;99.90;;;;;;10067677;28;20580;-60
2023/07/01 01:01:35;;;;;;;5.35;2.25;;;19.80;99.90;;;;;;10056363;28;20149;-59
2023/07/01 01:06:46;;;;;;;4.25;2.60;;;19.70;99.90;;;;;;10029001;28;20212;-59
2023/07/01 01:11:45;;;;;;;4.65;2.42;;;19.50;99.90;;;;;;10060061;28;20025;-61
2023/07/01 01:16:37;;;;;;;4.68;2.22;;;19.50;99.90;;;;;;10056578;28;20061;-59
2023/07/01 01:21:29;;;;;;;6.68;2.90;;;19.40;99.90;;;;;;10072523;28;20088;-61
2023/07/01 01:26:22;;;;;;;4.10;2.83;;;19.40;99.90;;;;;;10063322;28;20513;-60
2023/07/01 01:31:13;;;;;;;5.28;2.40;;;19.30;99.90;;;;;;10058462;28;20099;-59
2023/07/01 01:36:17;;;;;;;4.93;2.45;;;19.30;99.90;;;;;;10070230;28;20013;-59
2023/07/01 01:41:15;;;;;;;6.68;2.85;;;19.20;99.90;;;;;;10057354;28;20031;-60
2023/07/01 01:46:07;;;;;;;6.72;2.28;;;19.30;99.90;;;;;;10077780;28;20397;-59
2023/07/01 01:50:58;;;;;;;4.30;2.60;;;19.20;99.90;;;;;;10068045;28;20022;-60
2023/07/01 01:55:50;;;;;;;5.95;2.80;;;19.20;99.90;;;;;;10066485;28;20017;-60
2023/07/01 02:00:41;;;;;;;2.88;2.08;;;19.20;99.90;;;;;;10060801;28;20121;-59
2023/07/01 02:05:31;;;;;;;6.68;2.45;;;19.20;99.90;;;;;;10061371;28;20036;-59
2023/07/01 02:10:22;;;;;;;3.80;3.03;;;19.20;99.90;;;;;;10071634;28;20072;-60
2023/07/01 02:15:13;;;;;;;3.20;1.98;;;19.10;99.90;;;;;;10071707;28;20025;-60
2023/07/01 02:20:05;;;;;;;4.43;2.22;;;19.00;99.90;;;;;;10069036;28;20532;-59
2023/07/01 02:24:55;;;;;;;7.03;2.30;;;19.00;99.90;;;;;;10055058;28;20033;-60
2023/07/01 02:29:47;;;;;;;5.75;2.42;;;18.90;99.90;;;;;;10052752;28;20419;-59
2023/07/01 02:34:38;;;;;;;3.67;2.20;;;18.70;99.90;;;;;;10053723;28;20025;-60
2023/07/01 02:39:28;;;;;;;6.03;2.80;;;18.80;99.90;;;;;;10057212;28;20112;-59
2023/07/01 02:44:19;;;;;;;3.65;2.13;;;18.80;99.90;;;;;;10050181;28;20037;-59
2023/07/01 02:49:09;;;;;;;5.13;1.85;;;18.80;99.90;;;;;;10062429;28;20071;-60
2023/07/01 02:54:00;;;;;;;5.90;2.40;;;18.80;99.90;;;;;;10037856;28;20486;-60
2023/07/01 02:58:50;;;;;;;4.18;2.67;;;18.90;99.90;;;;;;10053665;28;20030;-60
2023/07/01 03:03:41;;;;;;;2.80;1.83;;;18.80;99.90;;;;;;10055830;28;20403;-60
2023/07/01 03:08:32;;;;;;;5.20;3.08;;;18.80;99.90;;;;;;10053356;28;20026;-60
2023/07/01 03:13:22;;;;;;;5.07;2.17;;;18.80;99.90;;;;;;10051618;28;20025;-59
2023/07/01 03:18:13;;;;;;;4.68;2.58;;;18.70;99.90;;;;;;10049627;28;20037;-60
2023/07/01 03:23:03;;;;;;;2.15;1.70;;;18.70;99.90;;;;;;10062533;28;20044;-59
2023/07/01 03:27:54;;;;;;;3.30;1.98;;;18.70;99.90;;;;;;10062764;28;20095;-60
2023/07/01 03:32:47;;;;;;;5.65;2.70;;;18.70;99.90;;;;;;10059233;28;20193;-61
2023/07/01 03:37:39;;;;;;;3.17;2.03;;;18.60;99.90;;;;;;10061799;28;20040;-60
2023/07/01 03:42:29;;;;;;;2.72;2.20;;;18.60;99.90;;;;;;10085217;28;20202;-59
2023/07/01 03:47:20;;;;;;;3.35;2.38;;;18.60;99.90;;;;;;10079051;28;20022;-60
2023/07/01 03:52:10;;;;;;;4.72;1.55;;;18.60;99.90;;;;;;10075468;28;20112;-60
2023/07/01 03:57:01;;;;;;;4.05;1.90;;;18.70;99.90;;;;;;10066935;28;20025;-60
2023/07/01 04:01:53;;;;;;;3.92;2.05;;;18.50;99.90;;;;;;10054713;28;20722;-59
2023/07/01 04:06:44;;;;;;;2.65;1.75;;;18.50;99.90;;;;;;10062824;28;20530;-59
2023/07/01 04:11:34;;;;;;;4.00;1.70;;;18.50;99.90;;;;;;10079665;28;20029;-60
2023/07/01 04:16:25;;;;;;;2.63;1.77;;;18.50;99.90;;;;;;10074555;28;20503;-60
2023/07/01 04:21:15;;;;;;;5.20;2.08;;;18.50;99.90;;;;;;10070763;28;20038;-60
2023/07/01 04:26:06;;;;;;;4.30;2.30;;;18.60;99.90;;;;;;10066069;28;20040;-59
2023/07/01 04:30:57;;;;;;;7.35;1.83;;;18.60;99.90;;;;;;10060841;28;20392;-59
2023/07/01 04:35:47;;;;;;;11.13;2.55;;;18.70;99.90;;;;;;10076844;28;20515;-59
2023/07/01 04:40:38;;;;;;;3.50;1.92;;;18.80;99.90;;;;;;10084809;28;20054;-60
2023/07/01 04:45:33;;;;;;;3.65;1.70;;;18.80;99.90;;;;;;10079418;28;20025;-59
2023/07/01 04:50:23;;;;;;;4.47;1.80;;;18.90;99.90;;;;;;10062302;28;20040;-60
2023/07/01 04:55:15;;;;;;;4.47;1.83;;;18.80;99.90;;;;;;10068283;28;20044;-60
2023/07/01 05:00:09;;;;;;;2.22;1.63;;;18.90;99.90;;;;;;10057334;28;20519;-59
2023/07/01 05:04:59;;;;;;;2.33;1.55;;;19.10;99.90;;;;;;10051635;28;20028;-59
2023/07/01 05:09:50;;;;;;;3.70;1.13;;;19.20;99.90;;;;;;10073951;28;20043;-60
2023/07/01 05:14:41;;;;;;;5.78;1.80;;;19.30;99.90;;;;;;10071662;28;20403;-61
2023/07/01 05:19:31;;;;;;;4.00;1.73;;;19.50;99.90;;;;;;10049764;28;20036;-59
2023/07/01 05:24:22;;;;;;;9.07;2.47;;;19.60;99.90;;;;;;10067194;28;20030;-60
2023/07/01 05:29:13;;;;;;;4.90;1.90;;;19.60;99.90;;;;;;10063542;28;20029;-60
2023/07/01 05:34:04;;;;;;;3.88;1.92;;;19.70;99.90;;;;;;10077629;28;20125;-59
2023/07/01 05:38:55;;;;;;;4.43;1.50;;;19.80;99.90;;;;;;10071993;28;20443;-59
2023/07/01 05:43:45;;;;;;;4.43;2.25;;;19.80;99.90;;;;;;10078401;28;20044;-59
2023/07/01 05:48:36;;;;;;;4.57;2.10;;;19.80;99.90;;;;;;10078309;28;20089;-61
2023/07/01 05:53:26;;;;;;;5.00;1.75;;;19.90;99.90;;;;;;10070034;28;20079;-59
2023/07/01 05:58:17;;;;;;;2.85;2.13;;;19.90;99.90;;;;;;10059597;28;20021;-59
2023/07/01 06:03:08;;;;;;;2.78;2.10;;;20.00;99.90;;;;;;10059860;28;20099;-59
2023/07/01 06:07:58;;;;;;;2.33;1.77;;;20.10;99.90;;;;;;10073586;28;20036;-59
2023/07/01 06:12:49;;;;;;;2.78;1.73;;;20.20;99.90;;;;;;10062722;28;20120;-60
2023/07/01 06:17:40;;;;;;;2.22;1.30;;;20.50;99.90;;;;;;10061810;28;20392;-58
2023/07/01 06:22:30;;;;;;;3.15;1.80;;;20.60;99.90;;;;;;10066505;28;20120;-59
2023/07/01 06:27:21;;;;;;;5.43;1.55;;;20.50;99.90;;;;;;10064582;28;20041;-59
2023/07/01 06:32:11;;;;;;;6.40;2.65;;;20.80;99.90;;;;;;10064075;28;20099;-59
2023/07/01 06:37:02;;;;;;;5.10;2.20;;;20.70;99.90;;;;;;10066944;28;20514;-59
2023/07/01 06:41:53;;;;;;;3.05;1.88;;;20.50;99.90;;;;;;10064830;28;20441;-59
2023/07/01 06:46:45;;;;;;;5.72;2.08;;;20.60;99.90;;;;;;10058499;28;20123;-61
2023/07/01 06:51:35;;;;;;;3.38;1.88;;;20.50;99.90;;;;;;10047577;28;20797;-61
2023/07/01 06:56:26;;;;;;;3.15;1.63;;;20.50;99.90;;;;;;10068079;28;20046;-62
2023/07/01 07:01:16;;;;;;;5.05;1.67;;;20.60;99.90;;;;;;10048520;28;20021;-62
2023/07/01 07:06:07;;;;;;;6.63;1.60;;;20.80;99.90;;;;;;10072532;28;20029;-61
2023/07/01 07:10:58;;;;;;;3.17;1.80;;;20.70;99.80;;;;;;10075074;28;20116;-62
2023/07/01 07:15:49;;;;;;;4.15;2.00;;;20.70;99.60;;;;;;10079861;28;20041;-61
2023/07/01 07:20:39;;;;;;;3.15;2.03;;;20.70;99.40;;;;;;10076275;28;20388;-61
2023/07/01 07:25:30;;;;;;;6.30;1.80;;;20.80;99.20;;;;;;10070697;28;20139;-61
2023/07/01 07:30:22;;;;;;;3.05;1.80;;;20.80;98.90;;;;;;10064319;28;20053;-61
2023/07/01 07:35:13;;;;;;;2.55;1.80;;;20.90;98.80;;;;;;10070832;28;20056;-61
2023/07/01 07:40:05;;;;;;;4.82;1.88;;;21.10;98.60;;;;;;10086748;28;20025;-61
2023/07/01 07:44:56;;;;;;;3.63;1.63;;;21.20;98.40;;;;;;10076207;28;20491;-61
2023/07/01 07:49:46;;;;;;;3.20;1.25;;;21.30;98.40;;;;;;10082442;28;20076;-62
2023/07/01 07:54:37;;;;;;;3.78;1.50;;;21.50;98.20;;;;;;10072747;28;20233;-61
2023/07/01 07:59:28;;;;;;;2.42;1.42;;;21.60;98.00;;;;;;10036982;28;20048;-62
2023/07/01 08:04:20;;;;;;;2.42;1.50;;;22.20;97.70;;;;;;10065848;28;20052;-62
2023/07/01 08:09:10;;;;;;;4.32;1.73;;;22.40;97.30;;;;;;10058319;28;20028;-63
2023/07/01 08:14:01;;;;;;;1.75;1.30;;;22.60;97.00;;;;;;10079732;28;20053;-62
2023/07/01 08:18:52;;;;;;;4.60;1.70;;;23.00;96.50;;;;;;10077349;28;20047;-62
2023/07/01 08:23:42;;;;;;;5.60;2.58;;;23.10;96.10;;;;;;10072679;28;20056;-61
2023/07/01 08:28:33;;;;;;;3.17;1.45;;;23.30;95.80;;;;;;10065000;28;20021;-61
2023/07/01 08:33:28;;;;;;;1.85;1.20;;;23.40;95.10;;;;;;10034440;28;20406;-61
2023/07/01 08:38:19;;;;;;;3.80;1.52;;;23.30;94.60;;;;;;10065137;28;20415;-62
2023/07/01 08:43:10;;;;;;;4.50;1.75;;;23.10;94.60;;;;;;10071443;28;20038;-62
2023/07/01 08:48:05;;;;;;;4.47;1.67;;;23.30;94.10;;;;;;10071797;28;20026;-62
2023/07/01 08:53:04;;;;;;;1.92;1.33;;;23.20;94.10;;;;;;10068762;28;20400;-62
2023/07/01 08:57:54;;;;;;;2.60;1.30;;;23.40;93.60;;;;;;10054843;28;20099;-61
2023/07/01 09:02:48;;;;;;;3.38;1.33;;;23.30;93.40;;;;;;10052822;28;20024;-62
2023/07/01 09:07:41;;;;;;;2.13;1.55;;;23.10;93.20;;;;;;10052900;28;20083;-62
2023/07/01 09:12:31;;;;;;;3.95;1.20;;;23.30;93.00;;;;;;10073416;28;20454;-63
2023/07/01 09:17:36;;;;;;;2.47;1.33;;;23.30;92.80;;;;;;10071068;28;20021;-62
2023/07/01 09:22:27;;;;;;;2.75;1.30;;;23.50;92.40;;;;;;10061774;28;20039;-61
2023/07/01 09:27:18;;;;;;;3.55;1.45;;;23.60;92.30;;;;;;10062645;28;20040;-61
2023/07/01 09:32:09;;;;;;;1.88;1.10;;;23.70;92.20;;;;;;10055451;28;20153;-63
2023/07/01 09:37:16;;;;;;;3.05;1.45;;;23.60;92.00;;;;;;10072819;28;20041;-62
2023/07/01 09:42:07;;;;;;;3.78;1.70;;;23.60;91.80;;;;;;10078563;28;20037;-62
2023/07/01 09:46:58;;;;;;;3.38;1.58;;;23.90;91.80;;;;;;10078572;28;20039;-62
2023/07/01 09:51:51;;;;;;;4.25;1.60;;;24.30;91.40;;;;;;10066726;28;20029;-62
2023/07/01 09:56:42;;;;;;;2.27;1.53;;;24.60;91.10;;;;;;10063400;28;20076;-62
2023/07/01 10:01:33;;;;;;;2.72;1.50;;;24.70;91.00;;;;;;10050342;28;20041;-61
2023/07/01 10:06:24;;;;;;;2.50;1.48;;;24.70;90.70;;;;;;10065317;28;20446;-62
2023/07/01 10:11:18;;;;;;;2.35;1.40;;;24.40;90.60;;;;;;10075113;28;20032;-62
2023/07/01 10:16:10;;;;;;;5.97;1.20;;;24.30;90.50;;;;;;10075733;28;20046;-63
2023/07/01 10:21:22;;;;;;;2.00;1.40;;;24.50;90.20;;;;;;10069999;28;20033;-61
2023/07/01 10:26:43;;;;;;;2.13;1.33;;;24.50;89.60;;;;;;10064681;28;20033;-61
2023/07/01 10:31:34;;;;;;;4.35;1.52;;;24.50;89.00;;;;;;10035251;28;20132;-61
2023/07/01 10:36:25;;;;;;;2.60;1.50;;;24.60;89.50;;;;;;10069770;28;20043;-61
2023/07/01 10:41:52;;;;;;;3.05;1.50;;;24.40;89.40;;;;;;10082993;28;20103;-62
2023/07/01 10:46:42;;;;;;;5.38;1.77;;;24.30;88.80;;;;;;10069874;28;20110;-63
2023/07/01 10:51:45;;;;;;;2.85;1.40;;;23.90;89.60;;;;;;10055568;28;20132;-62
2023/07/01 10:56:39;;;;;;;2.90;1.60;;;24.10;89.40;;;;;;10054547;28;20296;-61
2023/07/01 11:01:44;;;;;;;2.22;1.40;;;24.20;89.30;;;;;;10053256;28;20125;-63
2023/07/01 11:06:48;;;;;;;4.60;1.65;;;24.30;88.90;;;;;;10048998;28;20071;-62
2023/07/01 11:11:39;;;;;;;3.60;1.40;;;24.20;89.20;;;;;;10073539;28;20032;-62
2023/07/01 11:16:30;;;;;;;2.47;1.60;;;24.20;89.20;;;;;;10059663;28;20037;-62
2023/07/01 11:21:23;;;;;;;2.05;1.38;;;24.60;88.80;;;;;;10060502;28;20477;-63
2023/07/01 11:26:19;;;;;;;3.25;1.55;;;24.80;88.40;;;;;;10058099;28;20039;-62
2023/07/01 11:31:18;;;;;;;2.05;1.75;;;24.70;88.30;;;;;;10055797;28;20543;-62
2023/07/01 11:36:08;;;;;;;2.70;1.60;;;24.80;88.30;;;;;;10042719;28;20121;-63
2023/07/01 11:40:59;;;;;;;2.33;1.50;;;24.60;88.00;;;;;;10087680;28;20472;-61
2023/07/01 11:45:50;;;;;;;1.63;1.33;;;24.70;88.40;;;;;;10073115;28;20016;-62
2023/07/01 11:50:51;;;;;;;2.72;1.73;;;24.90;87.90;;;;;;10047366;28;20033;-63
2023/07/01 11:55:41;;;;;;;4.40;2.15;;;24.90;87.80;;;;;;10061191;28;20116;-62
2023/07/01 12:00:37;;;;;;;2.85;1.30;;;24.60;88.20;;;;;;10039918;28;20116;-63
2023/07/01 12:05:31;;;;;;;2.63;1.15;;;24.50;88.30;;;;;;10061095;28;20037;-62
2023/07/01 12:10:22;;;;;;;1.77;1.23;;;24.40;88.40;;;;;;10069733;28;20406;-62
2023/07/01 12:15:15;;;;;;;1.73;1.00;;;24.20;88.60;;;;;;10071600;28;20152;-62
2023/07/01 12:20:08;;;;;;;1.55;0.85;;;24.00;88.70;;;;;;10075831;28;20057;-62
2023/07/01 12:24:59;;;;;;;3.13;1.38;;;24.00;88.70;;;;;;10068416;28;20059;-62
2023/07/01 12:29:50;;;;;;;1.42;1.05;;;24.00;89.00;;;;;;10060942;28;20487;-62
2023/07/01 12:34:40;;;;;;;2.75;1.00;;;24.00;89.00;;;;;;10054540;28;20041;-63
2023/07/01 12:39:31;;;;;;;3.95;1.05;;;24.20;89.00;;;;;;10068837;28;20025;-62
2023/07/01 12:44:22;;;;;;;1.83;1.13;;;24.30;88.90;;;;;;10036294;28;20076;-62
2023/07/01 12:49:14;;;;;;;3.50;1.10;;;24.30;89.10;;;;;;10068646;28;20030;-63
2023/07/01 12:54:05;;;;;;;0.95;0.82;;;24.30;89.30;;;;;;10060109;28;20121;-62
2023/07/01 12:58:56;;;;;;;0.98;0.75;;;24.90;88.40;;;;;;10064698;28;20291;-63
2023/07/01 13:03:47;;;;;;;1.88;0.90;;;24.90;88.40;;;;;;10063457;28;20276;-62
2023/07/01 13:08:38;;;;;;;1.58;0.90;;;24.60;88.90;;;;;;10078481;28;20028;-63
2023/07/01 13:13:34;;;;;;;1.60;0.75;;;24.30;89.50;;;;;;10082342;28;20045;-63
2023/07/01 13:18:25;;;;;;;2.22;0.90;;;24.30;89.40;;;;;;10074555;28;20045;-62
2023/07/01 13:23:16;;;;;;;1.27;1.00;;;24.20;89.80;;;;;;10060340;28;20072;-62
2023/07/01 13:28:07;;;;;;;1.80;1.25;;;24.10;89.80;;;;;;10064490;28;20042;-62
2023/07/01 13:32:58;;;;;;;1.35;0.70;;;23.90;90.00;;;;;;10057306;28;20047;-62
2023/07/01 13:37:49;;;;;;;1.10;0.70;;;23.90;90.20;;;;;;10068176;28;20112;-63
2023/07/01 13:42:41;;;;;;;1.08;0.90;;;24.00;90.10;;;;;;10072459;28;20487;-63
2023/07/01 13:47:47;;;;;;;1.67;1.02;;;24.30;90.00;;;;;;10064547;28;20220;-62
2023/07/01 13:52:41;;;;;;;2.13;1.10;;;24.30;90.10;;;;;;10070320;28;20029;-62
2023/07/01 13:57:32;;;;;;;1.95;1.00;;;24.30;90.30;;;;;;10062388;28;20041;-62
2023/07/01 14:02:22;;;;;;;1.77;0.93;;;24.00;90.40;;;;;;10031164;28;20029;-62
2023/07/01 14:07:18;;;;;;;1.95;0.98;;;23.80;90.50;;;;;;10055912;28;20408;-61
2023/07/01 14:12:09;;;;;;;3.45;0.80;;;23.70;90.60;;;;;;10044275;28;20044;-61
2023/07/01 14:17:01;;;;;;;1.50;0.90;;;23.80;90.60;;;;;;10067795;28;20037;-62
2023/07/01 14:21:53;;;;;;;3.08;1.10;;;23.70;90.60;;;;;;10067505;28;20025;-62
2023/07/01 14:26:47;;;;;;;1.33;1.13;;;23.60;90.70;;;;;;10061732;28;20025;-61
2023/07/01 14:31:38;;;;;;;2.47;1.10;;;23.40;90.80;;;;;;10055118;28;20449;-62
2023/07/01 14:36:41;;;;;;;2.22;1.10;;;23.40;91.00;;;;;;10065409;28;20056;-62
2023/07/01 14:41:40;;;;;;;1.00;0.75;;;23.50;91.00;;;;;;10072465;28;20021;-61
2023/07/01 14:46:35;;;;;;;3.85;1.30;;;23.50;91.10;;;;;;10071069;28;20033;-62
2023/07/01 14:51:27;;;;;;;1.85;1.00;;;23.50;91.10;;;;;;10074193;28;20068;-62
2023/07/01 14:56:22;;;;;;;5.65;1.20;;;23.50;91.20;;;;;;10058587;28;20037;-62
2023/07/01 15:01:14;;;;;;;1.75;1.10;;;23.40;91.40;;;;;;10055449;28;20116;-61
2023/07/01 15:06:05;;;;;;;2.38;1.15;;;23.40;91.60;;;;;;10063859;28;20503;-61
2023/07/01 15:10:56;;;;;;;1.35;0.88;;;23.40;91.80;;;;;;10047668;28;20083;-61
2023/07/01 15:15:46;;;;;;;3.90;1.02;;;23.40;91.90;;;;;;10059934;28;20442;-62
2023/07/01 15:20:38;;;;;;;2.22;1.20;;;23.30;92.10;;;;;;10070907;28;20033;-61
2023/07/01 15:25:28;;;;;;;2.33;1.10;;;23.30;92.20;;;;;;10074002;28;20030;-62
2023/07/01 15:30:19;;;;;;;2.10;1.60;;;23.40;92.30;;;;;;10068898;28;20407;-62
2023/07/01 15:35:10;;;;;;;1.70;1.38;;;23.50;92.30;;;;;;10060481;28;20470;-62
2023/07/01 15:40:00;;;;;;;2.33;1.40;;;23.20;92.60;;;;;;10081350;28;20059;-62
2023/07/01 15:44:53;;;;;;;2.80;1.38;;;23.30;92.70;;;;;;10081233;28;20025;-62
2023/07/01 15:49:43;;;;;;;3.22;1.27;;;23.40;92.60;;;;;;10082345;28;20037;-61
2023/07/01 15:54:34;;;;;;;4.80;1.52;;;23.30;92.80;;;;;;10072468;28;20041;-61
2023/07/01 15:59:28;;;;;;;1.60;1.00;;;23.30;93.10;;;;;;10063730;28;20550;-61
2023/07/01 16:04:19;;;;;;;1.77;1.40;;;23.20;93.40;;;;;;10060531;28;20048;-61
2023/07/01 16:10:01;;;;;;;1.60;1.23;;;22.90;93.80;;;;;;10083218;28;20112;-64
2023/07/01 16:14:59;;;;;;;2.53;1.02;;;22.70;94.60;;;;;;10051682;28;20049;-61
2023/07/01 16:19:52;;;;;;;3.08;1.45;;;22.60;94.60;;;;;;10061021;28;20021;-61
2023/07/01 16:24:52;;;;;;;1.80;1.38;;;22.30;95.00;;;;;;10039774;28;20033;-62
2023/07/01 16:29:43;;;;;;;1.23;1.00;;;22.60;95.20;;;;;;10058066;28;20057;-62
2023/07/01 16:34:37;;;;;;;1.42;1.00;;;22.70;95.20;;;;;;10077689;28;20048;-61
2023/07/01 16:39:27;;;;;;;2.20;1.20;;;22.70;95.50;;;;;;10081263;28;20032;-62
2023/07/01 16:44:18;;;;;;;3.45;2.20;;;22.70;95.70;;;;;;10064658;28;20037;-62
2023/07/01 16:49:12;;;;;;;4.00;1.80;;;22.60;96.10;;;;;;10067505;28;20512;-61
2023/07/01 16:54:34;;;;;;;2.30;1.87;;;22.70;96.20;;;;;;10056484;28;20121;-61
2023/07/01 16:59:28;;;;;;;1.65;1.50;;;22.70;96.50;;;;;;10061071;28;20048;-62
2023/07/01 17:04:31;;;;;;;3.17;1.10;;;22.80;96.60;;;;;;10054348;28;20349;-61
2023/07/01 17:09:31;;;;;;;1.85;1.15;;;22.80;96.90;;;;;;10072676;28;20531;-62
2023/07/01 17:14:39;;;;;;;3.42;1.00;;;23.10;96.80;;;;;;10047197;28;20041;-61
2023/07/01 17:19:29;;;;;;;3.35;1.50;;;23.40;96.80;;;;;;10063132;28;20033;-63
2023/07/01 17:24:20;;;;;;;1.80;1.08;;;23.60;96.80;;;;;;10068187;28;20037;-63
2023/07/01 17:29:10;;;;;;;2.78;1.13;;;23.60;96.90;;;;;;10056768;28;20502;-62
2023/07/01 17:34:01;;;;;;;2.03;0.98;;;23.30;97.20;;;;;;10037621;28;20045;-62
2023/07/01 17:38:52;;;;;;;2.30;1.17;;;23.30;97.20;;;;;;10070728;28;20029;-62
2023/07/01 17:43:42;;;;;;;3.35;1.45;;;23.20;97.20;;;;;;10069683;28;20032;-62
2023/07/01 17:48:33;;;;;;;2.95;1.55;;;23.20;97.40;;;;;;10053820;28;20037;-61
2023/07/01 17:53:24;;;;;;;2.20;1.38;;;23.00;97.50;;;;;;10066428;28;20120;-62
2023/07/01 17:58:14;;;;;;;1.75;1.23;;;22.90;97.60;;;;;;10061594;28;20121;-62
2023/07/01 18:03:05;;;;;;;2.47;1.50;;;22.70;97.70;;;;;;10060102;28;20518;-61
2023/07/01 18:07:55;;;;;;;3.10;1.60;;;22.70;97.80;;;;;;10053866;28;20043;-62
2023/07/01 18:12:46;;;;;;;5.05;1.85;;;22.70;98.00;;;;;;10078171;28;20052;-65
2023/07/01 18:17:37;;;;;;;2.92;1.80;;;22.60;98.20;;;;;;10071561;28;20113;-61
2023/07/01 18:22:27;;;;;;;4.07;1.83;;;22.60;98.40;;;;;;10068840;28;20061;-62
2023/07/01 18:27:18;;;;;;;3.97;1.13;;;22.60;98.50;;;;;;10056352;28;20715;-62
2023/07/01 18:32:08;;;;;;;4.00;1.50;;;22.10;98.90;;;;;;10063893;28;20098;-62
2023/07/01 18:36:59;;;;;;;2.35;1.33;;;21.80;99.50;;;;;;10076866;28;20158;-62
2023/07/01 18:41:50;;;;;;;2.22;1.27;;;21.90;99.80;;;;;;10081256;28;20399;-62
2023/07/01 18:46:40;;;;;;;2.60;1.38;;;22.10;99.80;;;;;;10073413;28;20140;-62
2023/07/01 18:51:31;;;;;;;2.28;2.08;;;22.10;99.90;;;;;;10075260;28;20040;-62
2023/07/01 18:56:23;;;;;;;4.03;1.55;;;22.20;99.90;;;;;;10066700;28;20025;-62
2023/07/01 19:01:14;;;;;;;2.45;2.03;;;22.20;99.90;;;;;;10060192;28;20148;-62
2023/07/01 19:06:05;;;;;;;2.45;1.55;;;22.30;99.90;;;;;;10054463;28;20040;-62
2023/07/01 19:10:55;;;;;;;3.83;2.50;;;22.20;99.90;;;;;;10058899;28;20534;-62
2023/07/01 19:15:46;;;;;;;5.93;2.28;;;22.30;99.90;;;;;;10055322;28;20056;-62
2023/07/01 19:20:50;;;;;;;3.25;1.80;;;22.20;99.90;;;;;;10036295;28;20399;-62
2023/07/01 19:25:41;;;;;;;3.28;2.08;;;22.20;99.90;;;;;;10044174;28;20042;-62
2023/07/01 19:30:32;;;;;;;1.60;1.25;;;22.20;99.90;;;;;;10042353;28;20434;-62
2023/07/01 19:35:24;;;;;;;6.75;2.08;;;22.20;99.90;;;;;;10067331;28;20044;-62
2023/07/01 19:40:14;;;;;;;3.45;1.20;;;22.10;99.90;;;;;;10079504;28;20505;-62
2023/07/01 19:45:06;;;;;;;2.17;1.33;;;22.10;99.90;;;;;;10071237;28;20039;-62
2023/07/01 19:49:56;;;;;;;2.25;1.30;;;22.20;99.90;;;;;;10067371;28;20033;-62
2023/07/01 19:54:47;;;;;;;2.05;1.20;;;22.20;99.90;;;;;;10065650;28;20041;-63
2023/07/01 19:59:38;;;;;;;1.85;1.40;;;22.20;99.90;;;;;;10052536;28;20037;-62
2023/07/01 20:04:28;;;;;;;2.05;1.50;;;22.10;99.90;;;;;;10060291;28;20029;-62
2023/07/01 20:09:19;;;;;;;3.75;1.60;;;22.20;99.90;;;;;;10070667;28;20025;-62
2023/07/01 20:14:09;;;;;;;1.70;1.20;;;22.30;99.90;;;;;;10074336;28;20052;-62
2023/07/01 20:19:01;;;;;;;1.98;1.38;;;22.30;99.90;;;;;;10062331;28;20029;-62
2023/07/01 20:23:51;;;;;;;2.25;1.40;;;22.20;99.90;;;;;;10071135;28;20037;-62
2023/07/01 20:28:42;;;;;;;1.98;1.05;;;22.10;99.90;;;;;;10065361;28;20032;-62
2023/07/01 20:33:33;;;;;;;3.42;1.42;;;22.00;99.90;;;;;;10056703;28;20507;-62
2023/07/01 20:38:23;;;;;;;2.42;1.48;;;21.90;99.90;;;;;;10067312;28;20291;-61
2023/07/01 20:43:14;;;;;;;3.35;1.85;;;21.90;99.90;;;;;;10075494;28;20094;-61
2023/07/01 20:48:05;;;;;;;2.15;1.33;;;22.00;99.90;;;;;;10029712;28;20053;-63
2023/07/01 20:52:55;;;;;;;1.52;1.15;;;22.00;99.90;;;;;;10072408;28;20081;-63
2023/07/01 20:57:46;;;;;;;1.75;1.00;;;21.90;99.90;;;;;;10064677;28;20033;-61
2023/07/01 21:02:37;;;;;;;1.13;1.00;;;21.80;99.90;;;;;;10044870;28;20036;-64
2023/07/01 21:07:27;;;;;;;3.10;1.08;;;21.80;99.90;;;;;;10071791;28;20458;-64
2023/07/01 21:12:18;;;;;;;3.08;1.00;;;21.70;99.90;;;;;;10074095;28;20042;-63
2023/07/01 21:17:08;;;;;;;1.15;0.75;;;21.70;99.90;;;;;;10066251;28;20037;-64
2023/07/01 21:22:02;;;;;;;1.45;1.00;;;21.70;99.90;;;;;;10060764;28;20045;-63
2023/07/01 21:26:52;;;;;;;1.20;0.75;;;21.60;99.90;;;;;;10058259;28;20222;-63
2023/07/01 21:31:51;;;;;;;1.60;1.02;;;21.70;99.90;;;;;;10057317;28;20407;-62
2023/07/01 21:36:42;;;;;;;1.67;1.25;;;21.70;99.90;;;;;;10067414;28;20040;-61
2023/07/01 21:41:34;;;;;;;1.42;0.80;;;21.50;99.90;;;;;;10069883;28;20392;-62
2023/07/01 21:46:25;;;;;;;1.05;0.70;;;21.50;99.90;;;;;;10076543;28;20030;-62
2023/07/01 21:51:15;;;;;;;1.90;0.60;;;21.50;99.90;;;;;;10069517;28;20037;-63
2023/07/01 21:56:08;;;;;;;1.10;0.50;;;21.40;99.90;;;;;;10062367;28;20091;-62
2023/07/01 22:01:16;;;;;;;1.20;0.85;;;21.30;99.90;;;;;;10060244;28;20449;-61
2023/07/01 22:06:10;;;;;;;3.15;1.25;;;21.20;99.90;;;;;;10066781;28;20048;-63
2023/07/01 22:11:01;;;;;;;1.13;0.70;;;21.20;99.90;;;;;;10064950;28;20384;-63
2023/07/01 22:15:52;;;;;;;1.63;1.00;;;21.10;99.90;;;;;;10073817;28;20041;-63
2023/07/01 22:20:42;;;;;;;2.42;1.13;;;21.20;99.90;;;;;;10038413;28;20030;-62
2023/07/01 22:25:33;;;;;;;1.38;0.85;;;21.30;99.90;;;;;;10058170;28;20780;-63
2023/07/01 22:30:24;;;;;;;1.27;0.80;;;21.20;99.90;;;;;;10059187;28;20060;-62
2023/07/01 22:35:14;;;;;;;1.00;0.90;;;21.30;99.90;;;;;;10068741;28;20314;-63
2023/07/01 22:40:06;;;;;;;1.23;0.75;;;21.30;99.90;;;;;;10075952;28;20702;-62
2023/07/01 22:44:57;;;;;;;1.25;0.70;;;21.40;99.90;;;;;;10074501;28;20038;-62
2023/07/01 22:49:48;;;;;;;1.05;0.80;;;21.40;99.90;;;;;;10073912;28;20436;-62
2023/07/01 22:54:38;;;;;;;2.15;1.25;;;21.30;99.90;;;;;;10061293;28;20056;-62
2023/07/01 22:59:29;;;;;;;1.95;1.30;;;21.40;99.90;;;;;;10058181;28;20029;-61
2023/07/01 23:04:20;;;;;;;2.08;0.80;;;21.30;99.90;;;;;;10065538;28;20036;-62
2023/07/01 23:09:10;;;;;;;4.18;1.00;;;21.30;99.90;;;;;;10060570;28;20419;-62
2023/07/01 23:14:01;;;;;;;2.30;1.58;;;21.30;99.90;;;;;;10069728;28;20046;-64
2023/07/01 23:18:51;;;;;;;1.30;1.08;;;21.20;99.90;;;;;;10066003;28;20456;-62
2023/07/01 23:23:42;;;;;;;1.05;0.90;;;21.10;99.90;;;;;;10064614;28;20029;-61
2023/07/01 23:28:33;;;;;;;1.10;0.95;;;21.10;99.90;;;;;;10040962;28;20025;-62
2023/07/01 23:33:24;;;;;;;2.53;1.55;;;21.00;99.90;;;;;;10036879;28;20072;-63
2023/07/01 23:38:15;;;;;;;1.33;1.00;;;21.10;99.90;;;;;;10080343;28;20097;-62
2023/07/01 23:43:06;;;;;;;1.35;1.00;;;21.00;99.90;;;;;;10083173;28;20029;-61
2023/07/01 23:47:57;;;;;;;2.42;1.00;;;21.00;99.90;;;;;;10082722;28;20404;-62
2023/07/01 23:52:47;;;;;;;1.77;0.93;;;20.90;99.90;;;;;;10071817;28;20046;-62
2023/07/01 23:57:38;;;;;;;1.98;1.40;;;20.90;99.90;;;;;;10057834;28;20026;-61
